Gilbert, Arizona
Current Conditions -  °F | °C
As of 6:47 PM on Tuesday 21 Oct 2014 (Local Time) from KCHD Reporting Station
Scattered Clouds Scattered Clouds  
Wind Chill: 81°   Ceiling: Unl
Heat Index: 81°   Visibility: 15mi
Dew Point: 52°   Wind: 7mph
Humidity: 37%   Direction: 270°W
Pressure: 29.81"   Gusts: NA
Location:  33.33°N, 111.78°W
Report Text: KCHD 220147Z 27006KT 15SM SCT250 27/11 A2981
Loading
Personal Weather Stations






























Interactive Weather Map New forecast layout! Learn more

10-Day Weather Forecast

Advertisements
Track Severe Weather on mobile